createdAt,value
2023-05-19T00:00:48.555Z,101066.81
2023-05-19T00:03:21.868Z,101065.13
2023-05-19T00:05:50.581Z,101062.25
2023-05-19T00:08:20.118Z,101066.09
2023-05-19T00:10:48.320Z,101055.78
2023-05-19T00:13:18.222Z,101058.63
2023-05-19T00:15:46.835Z,101065.16
2023-05-19T00:18:16.706Z,101066.31
2023-05-19T00:20:44.799Z,101055.66
2023-05-19T00:23:12.735Z,101054.91
2023-05-19T00:25:40.644Z,101049.78
2023-05-19T00:28:08.512Z,101059.81
2023-05-19T00:30:37.764Z,101063.66
2023-05-19T00:33:05.681Z,101054.19
2023-05-19T00:35:33.591Z,101063.19
2023-05-19T00:38:01.518Z,101064.25
2023-05-19T00:40:33.428Z,101062.66
2023-05-19T00:43:01.592Z,101052.19
2023-05-19T00:45:30.022Z,101052.41
2023-05-19T00:47:59.327Z,101058.69
2023-05-19T00:50:28.401Z,101051.53
2023-05-19T00:52:56.798Z,101053.59
2023-05-19T00:55:32.083Z,101047.63
2023-05-19T00:58:00.070Z,101049.41
2023-05-19T01:00:28.240Z,101047.06
2023-05-19T01:02:57.056Z,101039.91
2023-05-19T01:05:26.765Z,101051.31
2023-05-19T01:07:56.454Z,101043.56
2023-05-19T01:10:24.413Z,101035.75
2023-05-19T01:12:52.314Z,101036.31
2023-05-19T01:15:21.003Z,101034.59
2023-05-19T01:17:57.092Z,101019.78
2023-05-19T01:20:38.513Z,101025.19
2023-05-19T01:23:32.236Z,101023.69
2023-05-19T01:26:37.181Z,101029.13
2023-05-19T01:29:29.969Z,101029.44
2023-05-19T01:32:02.209Z,101034.09
2023-05-19T01:34:32.520Z,101030.78
2023-05-19T01:37:02.480Z,101031.00
2023-05-19T01:39:31.082Z,101029.41
2023-05-19T01:42:00.868Z,101033.00
2023-05-19T01:44:29.946Z,101035.13
2023-05-19T01:46:59.410Z,101037.31
2023-05-19T01:49:27.203Z,101035.63
2023-05-19T01:51:55.059Z,101040.28
2023-05-19T01:54:22.821Z,101036.88
2023-05-19T01:56:57.966Z,101042.50
2023-05-19T01:59:43.503Z,101048.75
2023-05-19T02:02:22.433Z,101046.28
2023-05-19T02:04:58.472Z,101049.91
2023-05-19T02:07:33.528Z,101045.53
2023-05-19T02:10:06.909Z,101043.00
2023-05-19T02:12:37.736Z,101043.09
2023-05-19T02:15:08.397Z,101049.34
2023-05-19T02:17:42.491Z,101048.06
2023-05-19T02:20:11.900Z,101056.22
2023-05-19T02:22:39.994Z,101051.09
2023-05-19T02:25:09.031Z,101049.28
2023-05-19T02:27:38.449Z,101057.34
2023-05-19T02:30:08.394Z,101052.03
2023-05-19T02:32:37.770Z,101054.69
2023-05-19T02:35:06.625Z,101051.28
2023-05-19T02:37:35.468Z,101053.09
2023-05-19T02:40:03.884Z,101047.03
2023-05-19T02:42:31.788Z,101040.00
2023-05-19T02:44:59.594Z,101034.66
2023-05-19T02:47:27.647Z,101040.88
2023-05-19T02:49:56.909Z,101035.56
2023-05-19T02:52:24.984Z,101042.00
2023-05-19T02:54:52.895Z,101044.75
2023-05-19T02:57:20.761Z,101040.28
2023-05-19T02:59:48.607Z,101039.53
2023-05-19T03:02:16.429Z,101035.28
2023-05-19T03:04:44.260Z,101037.94
2023-05-19T03:07:15.670Z,101032.72
2023-05-19T03:09:43.722Z,101031.88
2023-05-19T03:12:11.453Z,101027.47
2023-05-19T03:14:39.302Z,101028.44
2023-05-19T03:17:08.649Z,101034.63
2023-05-19T03:19:36.559Z,101028.53
2023-05-19T03:22:04.983Z,101030.44
2023-05-19T03:24:34.499Z,101031.19
2023-05-19T03:27:02.557Z,101031.28
2023-05-19T03:29:30.329Z,101025.22
2023-05-19T03:31:58.091Z,101039.34
2023-05-19T03:34:25.893Z,101035.94
2023-05-19T03:36:53.714Z,101042.22
2023-05-19T03:39:21.477Z,101042.22
2023-05-19T03:41:51.369Z,101042.97
2023-05-19T03:44:19.134Z,101043.06
2023-05-19T03:46:46.962Z,101043.91
2023-05-19T03:49:15.164Z,101046.69
2023-05-19T03:51:43.183Z,101042.97
2023-05-19T03:54:11.247Z,101042.00
2023-05-19T03:56:41.080Z,101035.66
2023-05-19T03:59:12.362Z,101045.31
2023-05-19T04:01:40.162Z,101039.06
2023-05-19T04:04:07.986Z,101042.50
2023-05-19T04:06:36.267Z,101040.78
2023-05-19T04:09:05.167Z,101036.97
2023-05-19T04:11:32.972Z,101051.00
2023-05-19T04:14:00.619Z,101049.97
2023-05-19T04:16:29.819Z,101049.00
2023-05-19T04:18:57.680Z,101048.72
2023-05-19T04:21:25.908Z,101057.44
2023-05-19T04:23:53.760Z,101056.28
2023-05-19T04:26:21.720Z,101062.41
2023-05-19T04:28:49.746Z,101054.22
2023-05-19T04:31:17.668Z,101065.59
2023-05-19T04:33:48.048Z,101059.34
2023-05-19T04:36:17.581Z,101054.03
2023-05-19T04:38:46.918Z,101054.78
2023-05-19T04:41:16.479Z,101069.69
2023-05-19T04:43:44.814Z,101060.84
2023-05-19T04:46:13.940Z,101057.97
2023-05-19T04:48:42.152Z,101056.16
2023-05-19T04:51:14.333Z,101059.56
2023-05-19T04:53:42.830Z,101062.25
2023-05-19T04:56:13.837Z,101065.47
2023-05-19T04:58:42.048Z,101064.53
2023-05-19T05:01:10.639Z,101065.28
2023-05-19T05:03:38.510Z,101065.81
2023-05-19T05:06:06.751Z,101068.94
2023-05-19T05:08:37.352Z,101067.91
2023-05-19T05:11:05.757Z,101063.22
2023-05-19T05:13:34.060Z,101062.16
2023-05-19T05:16:04.733Z,101060.03
2023-05-19T05:18:33.305Z,101062.50
2023-05-19T05:21:01.814Z,101069.34
2023-05-19T05:23:30.120Z,101061.03
2023-05-19T05:25:59.802Z,101066.84
2023-05-19T05:28:27.523Z,101061.09
2023-05-19T05:30:56.354Z,101063.53
2023-05-19T05:33:24.908Z,101055.38
2023-05-19T05:35:52.992Z,101067.28
2023-05-19T05:38:20.796Z,101069.94
2023-05-19T05:40:48.592Z,101060.59
2023-05-19T05:43:17.719Z,101065.72
2023-05-19T05:45:45.527Z,101061.69
2023-05-19T05:48:13.865Z,101056.84
2023-05-19T05:50:43.653Z,101054.59
2023-05-19T05:53:18.882Z,101051.41
2023-05-19T05:55:47.771Z,101058.13
2023-05-19T05:58:17.068Z,101061.09
2023-05-19T06:00:45.382Z,101057.88
2023-05-19T06:03:13.552Z,101054.06
2023-05-19T06:05:41.731Z,101055.56
2023-05-19T06:08:09.604Z,101053.41
2023-05-19T06:10:39.045Z,101056.50
2023-05-19T06:13:06.934Z,101052.44
2023-05-19T06:15:36.180Z,101055.28
2023-05-19T06:18:04.014Z,101062.84
2023-05-19T06:20:32.106Z,101057.16
2023-05-19T06:23:01.925Z,101053.13
2023-05-19T06:25:29.754Z,101061.31
2023-05-19T06:27:57.570Z,101065.22
2023-05-19T06:30:25.487Z,101059.94
2023-05-19T06:32:54.747Z,101067.41
2023-05-19T06:35:22.547Z,101057.75
2023-05-19T06:37:50.322Z,101058.66
2023-05-19T06:40:18.307Z,101062.25
2023-05-19T06:42:46.081Z,101069.31
2023-05-19T06:45:13.865Z,101067.66
2023-05-19T06:47:42.504Z,101067.69
2023-05-19T06:50:12.054Z,101059.47
2023-05-19T06:52:39.822Z,101058.63
2023-05-19T06:55:08.400Z,101058.91
2023-05-19T06:57:36.251Z,101061.47
2023-05-19T07:00:05.798Z,101050.06
2023-05-19T07:02:33.730Z,101044.78
2023-05-19T07:05:01.660Z,101056.50
2023-05-19T07:07:30.892Z,101059.25
2023-05-19T07:09:58.633Z,101057.78
2023-05-19T07:12:26.634Z,101044.44
2023-05-19T07:14:54.477Z,101045.28
2023-05-19T07:17:22.465Z,101040.88
2023-05-19T07:19:50.379Z,101039.84
2023-05-19T07:22:18.201Z,101035.09
2023-05-19T07:24:47.468Z,101040.91
2023-05-19T07:27:15.246Z,101036.63
2023-05-19T07:29:43.066Z,101035.81
2023-05-19T07:32:10.888Z,101037.47
2023-05-19T07:34:38.697Z,101029.38
2023-05-19T07:37:06.703Z,101033.09
2023-05-19T07:39:35.304Z,101030.47
2023-05-19T07:42:05.056Z,101026.56
2023-05-19T07:44:32.835Z,101025.91
2023-05-19T07:47:00.820Z,101021.41
2023-05-19T07:49:30.729Z,101022.44
2023-05-19T07:51:58.529Z,101019.69
2023-05-19T07:54:26.313Z,101022.16
2023-05-19T07:56:54.203Z,101019.91
2023-05-19T07:59:24.290Z,101018.81
2023-05-19T08:01:52.239Z,101025.31
2023-05-19T08:04:20.094Z,101023.34
2023-05-19T08:06:47.929Z,101016.75
2023-05-19T08:09:15.765Z,101016.34
2023-05-19T08:11:44.778Z,101014.84
2023-05-19T08:14:12.643Z,101011.88
2023-05-19T08:16:43.153Z,101006.69
2023-05-19T08:19:11.087Z,101005.81
2023-05-19T08:21:38.954Z,101009.59
2023-05-19T08:24:07.328Z,101009.00
2023-05-19T08:26:37.038Z,101007.41
2023-05-19T08:29:05.593Z,101004.09
2023-05-19T08:31:33.478Z,100997.69
2023-05-19T08:34:03.373Z,100998.91
2023-05-19T08:36:31.210Z,100998.41
2023-05-19T08:38:58.991Z,100988.22
2023-05-19T08:41:26.852Z,100985.41
2023-05-19T08:43:54.754Z,100984.78
2023-05-19T08:46:24.050Z,100974.00
2023-05-19T08:48:59.495Z,100979.19
2023-05-19T08:51:43.948Z,100970.66
2023-05-19T08:54:15.826Z,100970.16
2023-05-19T08:56:45.425Z,100972.41
2023-05-19T08:59:14.930Z,100967.59
2023-05-19T09:01:44.984Z,100967.03
2023-05-19T09:04:13.096Z,100958.81
2023-05-19T09:06:45.041Z,100963.63
2023-05-19T09:09:12.941Z,100959.66
2023-05-19T09:11:40.806Z,100959.50
2023-05-19T09:14:08.563Z,100955.97
2023-05-19T09:16:36.406Z,100957.19
2023-05-19T09:19:06.336Z,100949.25
2023-05-19T09:21:34.594Z,100946.38
2023-05-19T09:24:07.963Z,100942.19
2023-05-19T09:26:40.100Z,100937.28
2023-05-19T09:29:14.575Z,100932.72
2023-05-19T09:31:50.156Z,100935.75
2023-05-19T09:34:18.128Z,100933.50
2023-05-19T09:36:49.512Z,100929.72
2023-05-19T09:39:19.301Z,100930.19
2023-05-19T09:41:47.697Z,100931.03
2023-05-19T09:44:24.105Z,100928.31
2023-05-19T09:46:52.954Z,100921.34
2023-05-19T09:49:22.615Z,100919.59
2023-05-19T09:51:55.102Z,100915.81
2023-05-19T09:54:25.250Z,100921.22
2023-05-19T09:56:58.652Z,100908.38
2023-05-19T09:59:29.028Z,100923.56
2023-05-19T10:02:00.222Z,100908.47
2023-05-19T10:04:29.306Z,100910.78
2023-05-19T10:06:59.612Z,100917.59
2023-05-19T10:09:30.228Z,100914.56
2023-05-19T10:11:59.261Z,100905.31
2023-05-19T10:14:28.464Z,100903.69
2023-05-19T10:16:58.642Z,100899.47
2023-05-19T10:19:27.810Z,100896.81
2023-05-19T10:21:56.127Z,100898.63
2023-05-19T10:24:24.033Z,100890.09
2023-05-19T10:26:59.088Z,100894.84
2023-05-19T10:29:29.954Z,100885.16
2023-05-19T10:32:00.643Z,100885.06
2023-05-19T10:34:53.462Z,100892.44
2023-05-19T10:37:24.955Z,100892.19
2023-05-19T10:39:52.916Z,100889.91
2023-05-19T10:42:30.573Z,100888.22
2023-05-19T10:45:09.314Z,100893.28
2023-05-19T10:47:37.277Z,100887.56
2023-05-19T10:50:06.794Z,100884.19
2023-05-19T10:52:38.466Z,100893.16
2023-05-19T10:55:09.094Z,100891.97
2023-05-19T10:57:38.498Z,100877.84
2023-05-19T11:00:27.582Z,100877.22
2023-05-19T11:02:57.530Z,100882.00
2023-05-19T11:05:31.047Z,100884.06
2023-05-19T11:08:02.504Z,100874.53
2023-05-19T11:10:30.542Z,100879.38
2023-05-19T11:13:00.162Z,100881.53
2023-05-19T11:15:29.146Z,100881.94
2023-05-19T11:17:57.258Z,100875.16
2023-05-19T11:20:26.245Z,100886.09
2023-05-19T11:23:17.991Z,100877.03
2023-05-19T11:25:48.071Z,100881.06
2023-05-19T11:28:21.236Z,100873.31
2023-05-19T11:30:51.766Z,100872.94
2023-05-19T11:33:21.123Z,100869.63
2023-05-19T11:35:51.168Z,100863.38
2023-05-19T11:38:20.017Z,100868.81
2023-05-19T11:40:49.782Z,100873.69
2023-05-19T11:43:19.212Z,100868.06
2023-05-19T11:45:47.237Z,100865.38
2023-05-19T11:48:17.356Z,100868.91
2023-05-19T11:50:46.760Z,100859.34
2023-05-19T11:53:17.496Z,100859.72
2023-05-19T11:55:47.373Z,100863.41
2023-05-19T11:58:15.759Z,100860.06
2023-05-19T12:00:47.864Z,100857.00
2023-05-19T12:03:17.476Z,100864.88
2023-05-19T12:05:49.400Z,100845.41
2023-05-19T12:08:18.368Z,100852.13
2023-05-19T12:10:49.873Z,100851.81
2023-05-19T12:13:18.129Z,100846.84
2023-05-19T12:15:47.421Z,100842.31
2023-05-19T12:18:15.227Z,100844.13
2023-05-19T12:20:43.151Z,100839.22
2023-05-19T12:23:11.294Z,100842.03
2023-05-19T12:25:39.336Z,100837.28
2023-05-19T12:28:07.962Z,100845.53
2023-05-19T12:30:36.065Z,100838.84
2023-05-19T12:33:05.916Z,100839.25
2023-05-19T12:35:34.452Z,100837.28
2023-05-19T12:38:05.852Z,100831.47
2023-05-19T12:40:34.946Z,100823.28
2023-05-19T12:43:03.391Z,100825.94
2023-05-19T12:45:35.493Z,100821.50
2023-05-19T12:48:06.760Z,100812.25
2023-05-19T12:50:35.285Z,100821.59
2023-05-19T12:53:03.471Z,100811.81
2023-05-19T12:55:31.477Z,100808.88
2023-05-19T12:57:59.412Z,100811.00
2023-05-19T13:00:31.172Z,100819.84
2023-05-19T13:03:01.458Z,100821.59
2023-05-19T13:05:33.682Z,100809.59
2023-05-19T13:08:03.138Z,100822.88
2023-05-19T13:10:31.701Z,100814.09
2023-05-19T13:13:01.204Z,100812.34
2023-05-19T13:15:31.780Z,100821.69
2023-05-19T13:17:59.657Z,100812.03
2023-05-19T13:20:28.675Z,100810.31
2023-05-19T13:22:58.050Z,100814.22
2023-05-19T13:25:26.332Z,100802.34
2023-05-19T13:27:54.654Z,100801.63
2023-05-19T13:30:23.707Z,100813.16
2023-05-19T13:32:52.597Z,100798.91
2023-05-19T13:35:21.150Z,100807.91
2023-05-19T13:37:48.971Z,100810.06
2023-05-19T13:40:19.231Z,100797.44
2023-05-19T13:42:47.392Z,100804.78
2023-05-19T13:45:15.156Z,100789.13
2023-05-19T13:47:42.983Z,100793.94
2023-05-19T13:50:11.104Z,100795.97
2023-05-19T13:52:38.911Z,100800.59
2023-05-19T13:55:08.215Z,100796.44
2023-05-19T13:57:38.278Z,100792.97
2023-05-19T14:00:07.399Z,100800.09
2023-05-19T14:02:36.796Z,100804.53
2023-05-19T14:05:05.332Z,100793.75
2023-05-19T14:07:35.016Z,100802.22
2023-05-19T14:10:03.902Z,100796.13
2023-05-19T14:12:41.424Z,100796.69
2023-05-19T14:15:16.666Z,100801.19
2023-05-19T14:17:44.631Z,100803.25
2023-05-19T14:20:13.145Z,100800.22
2023-05-19T14:22:41.048Z,100798.22
2023-05-19T14:25:09.782Z,100798.59
2023-05-19T14:27:40.410Z,100793.69
2023-05-19T14:30:09.710Z,100787.78
2023-05-19T14:32:39.316Z,100782.84
2023-05-19T14:35:08.176Z,100790.63
2023-05-19T14:37:36.087Z,100794.50
2023-05-19T14:40:04.496Z,100786.38
2023-05-19T14:42:32.281Z,100786.53
2023-05-19T14:45:00.072Z,100781.78
2023-05-19T14:47:28.063Z,100787.34
2023-05-19T14:49:57.284Z,100790.75
2023-05-19T14:52:26.228Z,100780.59
2023-05-19T14:54:54.282Z,100788.19
2023-05-19T14:57:22.326Z,100783.94
2023-05-19T14:59:50.655Z,100775.97
2023-05-19T15:02:18.661Z,100777.97
2023-05-19T15:04:46.824Z,100778.63
2023-05-19T15:07:16.377Z,100778.78
2023-05-19T15:09:44.173Z,100780.50
2023-05-19T15:12:11.917Z,100779.84
2023-05-19T15:14:39.917Z,100775.25
2023-05-19T15:17:07.962Z,100774.09
2023-05-19T15:19:35.742Z,100772.94
2023-05-19T15:22:03.671Z,100773.44
2023-05-19T15:24:32.799Z,100780.34
2023-05-19T15:27:00.879Z,100767.84
2023-05-19T15:29:28.745Z,100766.66
2023-05-19T15:31:57.200Z,100775.44
2023-05-19T15:34:25.174Z,100778.19
2023-05-19T15:36:53.052Z,100774.31
2023-05-19T15:39:20.862Z,100769.44
2023-05-19T15:41:51.021Z,100756.75
2023-05-19T15:44:19.040Z,100759.28
2023-05-19T15:46:46.929Z,100757.09
2023-05-19T15:49:14.898Z,100760.84
2023-05-19T15:51:43.125Z,100767.06
2023-05-19T15:54:11.048Z,100765.03
2023-05-19T15:56:38.981Z,100769.59
2023-05-19T15:59:08.216Z,100765.19
2023-05-19T16:01:36.646Z,100754.19
2023-05-19T16:04:05.312Z,100764.16
2023-05-19T16:06:33.302Z,100758.25
2023-05-19T16:09:01.095Z,100755.09
2023-05-19T16:11:29.108Z,100751.69
2023-05-19T16:13:56.889Z,100764.75
2023-05-19T16:16:26.129Z,100755.13
2023-05-19T16:18:54.343Z,100755.13
2023-05-19T16:21:22.460Z,100750.59
2023-05-19T16:23:50.387Z,100742.94
2023-05-19T16:26:18.185Z,100735.72
2023-05-19T16:28:46.030Z,100732.34
2023-05-19T16:31:13.856Z,100719.81
2023-05-19T16:33:43.083Z,100729.81
2023-05-19T16:36:10.914Z,100720.00
2023-05-19T16:38:38.742Z,100717.13
2023-05-19T16:41:07.674Z,100716.28
2023-05-19T16:43:35.982Z,100713.75
2023-05-19T16:46:05.268Z,100715.78
2023-05-19T16:48:33.293Z,100711.75
2023-05-19T16:51:02.488Z,100713.47
2023-05-19T16:53:31.118Z,100713.34
2023-05-19T16:55:59.322Z,100712.31
2023-05-19T16:58:28.822Z,100705.75
2023-05-19T17:00:57.879Z,100709.31
2023-05-19T17:03:25.904Z,100706.28
2023-05-19T17:05:53.887Z,100703.75
2023-05-19T17:08:23.150Z,100701.41
2023-05-19T17:10:51.208Z,100703.09
2023-05-19T17:13:19.140Z,100703.63
2023-05-19T17:15:47.110Z,100698.91
2023-05-19T17:18:16.040Z,100706.34
2023-05-19T17:20:44.049Z,100695.88
2023-05-19T17:23:12.074Z,100701.47
2023-05-19T17:25:41.349Z,100703.31
2023-05-19T17:28:09.336Z,100699.47
2023-05-19T17:30:37.658Z,100706.53
2023-05-19T17:33:05.740Z,100699.13
2023-05-19T17:35:34.453Z,100707.22
2023-05-19T17:38:02.351Z,100701.97
2023-05-19T17:40:30.251Z,100706.72
2023-05-19T17:42:59.449Z,100707.91
2023-05-19T17:45:27.356Z,100709.09
2023-05-19T17:47:55.328Z,100713.63
2023-05-19T17:50:23.154Z,100713.81
2023-05-19T17:52:52.246Z,100712.13
2023-05-19T17:55:21.213Z,100710.63
2023-05-19T17:57:49.738Z,100718.88
2023-05-19T18:00:20.169Z,100717.22
2023-05-19T18:02:48.807Z,100716.53
2023-05-19T18:05:17.698Z,100716.69
2023-05-19T18:07:45.793Z,100715.34
2023-05-19T18:10:16.866Z,100715.69
2023-05-19T18:12:44.619Z,100711.47
2023-05-19T18:15:12.873Z,100714.50
2023-05-19T18:17:42.021Z,100706.59
2023-05-19T18:20:10.665Z,100708.75
2023-05-19T18:22:38.623Z,100703.50
2023-05-19T18:25:07.854Z,100709.91
2023-05-19T18:27:35.604Z,100709.22
2023-05-19T18:30:03.543Z,100704.03
2023-05-19T18:32:31.398Z,100706.88
2023-05-19T18:35:00.613Z,100704.19
2023-05-19T18:37:28.626Z,100708.75
2023-05-19T18:39:56.473Z,100703.50
2023-05-19T18:42:24.278Z,100704.69
2023-05-19T18:44:52.098Z,100697.75
2023-05-19T18:47:20.217Z,100694.38
2023-05-19T18:49:48.030Z,100694.59
2023-05-19T18:52:19.091Z,100690.34
2023-05-19T18:54:47.157Z,100697.75
2023-05-19T18:57:15.233Z,100690.03
2023-05-19T18:59:43.063Z,100700.97
2023-05-19T19:02:10.871Z,100693.19
2023-05-19T19:04:38.724Z,100696.25
2023-05-19T19:07:06.912Z,100696.03
2023-05-19T19:09:36.052Z,100705.31
2023-05-19T19:12:03.974Z,100701.78
2023-05-19T19:14:31.742Z,100702.28
2023-05-19T19:16:59.582Z,100703.44
2023-05-19T19:19:29.808Z,100699.56
2023-05-19T19:21:57.810Z,100709.84
2023-05-19T19:24:26.421Z,100703.94
2023-05-19T19:26:55.618Z,100706.25
2023-05-19T19:29:23.413Z,100713.66
2023-05-19T19:31:51.314Z,100718.72
2023-05-19T19:34:19.822Z,100717.38
2023-05-19T19:36:48.006Z,100717.69
2023-05-19T19:39:15.948Z,100712.78
2023-05-19T19:41:44.053Z,100708.38
2023-05-19T19:44:13.642Z,100715.22
2023-05-19T19:46:41.827Z,100714.41
2023-05-19T19:49:09.815Z,100720.13
2023-05-19T19:51:37.697Z,100725.00
2023-05-19T19:54:05.841Z,100725.47
2023-05-19T19:56:33.787Z,100728.47
2023-05-19T19:59:01.869Z,100725.63
2023-05-19T20:01:31.347Z,100729.66
2023-05-19T20:03:59.493Z,100725.41
2023-05-19T20:06:27.619Z,100724.91
2023-05-19T20:08:55.647Z,100725.22
2023-05-19T20:11:24.591Z,100730.94
2023-05-19T20:13:52.789Z,100731.25
2023-05-19T20:16:20.860Z,100726.34
2023-05-19T20:18:50.580Z,100722.78
2023-05-19T20:21:18.718Z,100718.72
2023-05-19T20:23:46.724Z,100719.91
2023-05-19T20:26:14.972Z,100718.53
2023-05-19T20:28:42.907Z,100714.31
2023-05-19T20:31:10.864Z,100715.50
2023-05-19T20:33:39.096Z,100720.16
2023-05-19T20:36:08.670Z,100720.34
2023-05-19T20:38:36.606Z,100717.81
2023-05-19T20:41:04.956Z,100718.97
2023-05-19T20:43:33.577Z,100718.97
2023-05-19T20:46:03.822Z,100720.13
2023-05-19T20:48:31.757Z,100718.75
2023-05-19T20:50:59.513Z,100719.06
2023-05-19T20:53:28.698Z,100719.38
2023-05-19T20:55:56.511Z,100715.00
2023-05-19T20:58:26.672Z,100713.44
2023-05-19T21:00:57.563Z,100711.09
2023-05-19T21:03:27.031Z,100721.16
2023-05-19T21:05:55.700Z,100717.09
2023-05-19T21:08:23.649Z,100718.78
2023-05-19T21:10:53.000Z,100708.34
2023-05-19T21:13:20.830Z,100712.03
2023-05-19T21:15:48.849Z,100712.50
2023-05-19T21:18:16.781Z,100714.34
2023-05-19T21:20:44.627Z,100711.81
2023-05-19T21:23:12.402Z,100715.78
2023-05-19T21:25:40.832Z,100711.56
2023-05-19T21:28:09.924Z,100717.63
2023-05-19T21:30:37.610Z,100716.09
2023-05-19T21:33:05.642Z,100708.50
2023-05-19T21:35:33.536Z,100705.94
2023-05-19T21:38:11.988Z,100713.47
2023-05-19T21:40:43.749Z,100716.34
2023-05-19T21:43:12.950Z,100712.97
2023-05-19T21:45:40.759Z,100719.31
2023-05-19T21:48:08.527Z,100714.41
2023-05-19T21:50:37.441Z,100718.28
2023-05-19T21:53:05.770Z,100717.72
2023-05-19T21:55:33.662Z,100714.19
2023-05-19T21:58:02.621Z,100717.19
2023-05-19T22:00:32.398Z,100712.78
2023-05-19T22:03:00.420Z,100707.75
2023-05-19T22:05:30.435Z,100708.72
2023-05-19T22:07:58.562Z,100711.59
2023-05-19T22:10:26.316Z,100709.34
2023-05-19T22:12:54.076Z,100706.13
2023-05-19T22:15:22.087Z,100700.91
2023-05-19T22:17:51.217Z,100695.97
2023-05-19T22:20:19.198Z,100701.81
2023-05-19T22:22:46.966Z,100704.63
2023-05-19T22:25:14.740Z,100700.41
2023-05-19T22:27:42.552Z,100702.41
2023-05-19T22:30:10.523Z,100709.94
2023-05-19T22:32:38.316Z,100704.69
2023-05-19T22:35:08.421Z,100706.69
2023-05-19T22:37:36.235Z,100702.47
2023-05-19T22:40:04.223Z,100700.78
2023-05-19T22:42:31.998Z,100696.72
2023-05-19T22:44:59.785Z,100692.34
2023-05-19T22:47:27.646Z,100692.47
2023-05-19T22:49:57.179Z,100700.00
2023-05-19T22:52:26.433Z,100685.03
2023-05-19T22:54:54.204Z,100688.53
2023-05-19T22:57:22.010Z,100689.69
2023-05-19T22:59:49.795Z,100686.63
2023-05-19T23:02:18.239Z,100683.25
2023-05-19T23:04:46.014Z,100691.59
2023-05-19T23:07:13.794Z,100691.91
2023-05-19T23:09:42.951Z,100693.19
2023-05-19T23:12:10.828Z,100696.00
2023-05-19T23:14:39.678Z,100686.25
2023-05-19T23:17:07.544Z,100685.56
2023-05-19T23:19:36.485Z,100690.78
2023-05-19T23:22:04.529Z,100692.75
2023-05-19T23:24:32.459Z,100693.75
2023-05-19T23:27:01.630Z,100683.31
2023-05-19T23:29:29.399Z,100679.63
2023-05-19T23:31:57.285Z,100676.25
2023-05-19T23:34:25.079Z,100675.56
2023-05-19T23:36:52.976Z,100680.22
2023-05-19T23:39:25.304Z,100681.50
2023-05-19T23:41:53.216Z,100669.53
2023-05-19T23:44:22.288Z,100672.38
2023-05-19T23:46:50.119Z,100672.53
2023-05-19T23:49:17.803Z,100668.31
2023-05-19T23:51:45.541Z,100668.44
2023-05-19T23:54:13.353Z,100662.06
2023-05-19T23:56:41.353Z,100663.22
2023-05-19T23:59:09.064Z,100671.56
